Time;durP1;ratioP1;P1;durP2;ratioP2;P2;SDS_P1;SDS_P2;PMS_P1;PMS_P2;Temp;Humidity;BMP_temperature;BMP_pressure;BME280_temperature;BME280_humidity;BME280_pressure;Samples;Min_cycle;Max_cycle;Signal;HPM_P1;HPM_P2
2022/10/13 00:01:54;;;;;;;14.13;6.60;;;;;12.20;101415.00;;;;10442390;28;20205;-74
2022/10/13 00:06:55;;;;;;;10.77;6.67;;;;;12.30;101417.00;;;;10442425;28;20767;-74
2022/10/13 00:11:59;;;;;;;10.30;6.80;;;;;12.30;101411.00;;;;10440719;28;20233;-74
2022/10/13 00:17:01;;;;;;;9.10;6.80;;;;;12.20;101407.00;;;;10425152;28;20198;-74
2022/10/13 00:22:02;;;;;;;12.77;6.60;;;;;12.20;101405.00;;;;10431160;28;20693;-74
2022/10/13 00:27:03;;;;;;;12.80;6.70;;;;;12.20;101403.00;;;;10472932;28;20892;-74
2022/10/13 00:32:05;;;;;;;10.87;7.30;;;;;12.20;101403.00;;;;10443766;28;20205;-74
2022/10/13 00:37:06;;;;;;;15.97;6.80;;;;;12.30;101415.00;;;;10444107;28;20725;-75
2022/10/13 00:42:11;;;;;;;17.63;7.30;;;;;12.30;101401.00;;;;10432679;28;20593;-74
2022/10/13 00:47:12;;;;;;;11.53;7.23;;;;;12.20;101409.00;;;;10444679;28;20229;-74
2022/10/13 00:52:14;;;;;;;10.90;7.17;;;;;12.20;101411.00;;;;10435250;28;20316;-74
2022/10/13 00:57:19;;;;;;;11.83;7.20;;;;;12.10;101417.00;;;;10443703;28;20198;-74
2022/10/13 01:02:22;;;;;;;16.80;8.20;;;;;12.10;101414.00;;;;10436269;28;20202;-74
2022/10/13 01:07:26;;;;;;;13.67;7.20;;;;;12.00;101409.00;;;;10443952;28;20854;-74
2022/10/13 01:13:04;;;;;;;12.43;7.97;;;;;12.00;101414.00;;;;10449543;28;20206;-74
2022/10/13 01:18:45;;;;;;;16.37;8.47;;;;;12.00;101416.00;;;;10427908;28;20233;-74
2022/10/13 01:24:14;;;;;;;16.10;8.63;;;;;11.90;101411.00;;;;10445116;28;20205;-75
2022/10/13 01:29:31;;;;;;;15.27;8.97;;;;;11.90;101395.00;;;;10461020;28;20739;-75
2022/10/13 01:34:40;;;;;;;14.37;8.10;;;;;11.90;101383.00;;;;10442167;28;20203;-75
2022/10/13 01:39:50;;;;;;;17.47;9.00;;;;;11.90;101381.00;;;;10444027;28;20588;-74
2022/10/13 01:44:56;;;;;;;16.07;7.50;;;;;11.90;101379.00;;;;10406811;28;20229;-75
2022/10/13 01:49:59;;;;;;;12.47;7.80;;;;;11.90;101370.00;;;;10438569;28;20561;-75
2022/10/13 01:55:09;;;;;;;14.20;7.30;;;;;11.90;101365.00;;;;10408547;28;20209;-74
2022/10/13 02:00:14;;;;;;;14.63;7.33;;;;;11.90;101372.00;;;;10436780;28;20259;-74
2022/10/13 02:05:24;;;;;;;13.27;8.17;;;;;11.80;101362.00;;;;10435485;28;20225;-75
2022/10/13 02:10:37;;;;;;;11.97;8.00;;;;;11.80;101357.00;;;;10443196;28;20262;-75
2022/10/13 02:15:44;;;;;;;19.47;8.53;;;;;11.80;101347.00;;;;10437823;28;20202;-75
2022/10/13 02:20:46;;;;;;;14.27;8.73;;;;;11.80;101339.00;;;;10449863;28;20277;-75
2022/10/13 02:25:49;;;;;;;14.10;8.03;;;;;11.70;101336.00;;;;10445631;28;20214;-75
2022/10/13 02:30:51;;;;;;;18.77;8.47;;;;;11.70;101334.00;;;;10429703;28;20203;-75
2022/10/13 02:35:52;;;;;;;14.80;9.50;;;;;11.70;101323.00;;;;10450101;28;20260;-74
2022/10/13 02:41:30;;;;;;;17.67;8.70;;;;;11.70;101331.00;;;;10443887;28;20201;-74
2022/10/13 02:46:31;;;;;;;16.57;8.10;;;;;11.60;101337.00;;;;10433223;28;20224;-75
2022/10/13 02:51:52;;;;;;;15.70;9.23;;;;;11.60;101330.00;;;;10445566;28;20197;-75
2022/10/13 02:56:53;;;;;;;16.20;9.43;;;;;11.60;101334.00;;;;10452956;28;20269;-75
2022/10/13 03:01:55;;;;;;;16.43;9.77;;;;;11.60;101325.00;;;;10427958;28;20202;-75
2022/10/13 03:06:56;;;;;;;16.40;10.43;;;;;11.60;101327.00;;;;10435764;28;20225;-75
2022/10/13 03:11:58;;;;;;;18.00;10.17;;;;;11.50;101319.00;;;;10419292;28;20202;-75
2022/10/13 03:16:59;;;;;;;23.57;9.93;;;;;11.50;101325.00;;;;10424045;28;20233;-75
2022/10/13 03:22:00;;;;;;;21.63;11.23;;;;;11.50;101318.00;;;;10448557;28;20284;-75
2022/10/13 03:27:01;;;;;;;16.50;10.10;;;;;11.50;101323.00;;;;10450979;28;20225;-75
2022/10/13 03:32:02;;;;;;;14.40;10.20;;;;;11.50;101315.00;;;;10450306;28;20202;-75
2022/10/13 03:37:04;;;;;;;22.60;9.73;;;;;11.50;101314.00;;;;10475493;28;20551;-75
2022/10/13 03:42:11;;;;;;;20.23;10.70;;;;;11.50;101293.00;;;;10452702;28;20190;-75
2022/10/13 03:47:13;;;;;;;18.37;10.50;;;;;11.50;101293.00;;;;10447485;28;20249;-75
2022/10/13 03:52:14;;;;;;;18.97;10.80;;;;;11.60;101295.00;;;;10442052;28;20195;-75
2022/10/13 03:57:16;;;;;;;16.50;10.60;;;;;11.70;101298.00;;;;10457202;28;20206;-75
2022/10/13 04:02:17;;;;;;;22.63;10.67;;;;;11.70;101293.00;;;;10443828;28;20213;-75
2022/10/13 04:07:19;;;;;;;14.67;10.37;;;;;11.70;101294.00;;;;10450679;28;20892;-75
2022/10/13 04:12:20;;;;;;;17.77;10.17;;;;;11.60;101289.00;;;;10455041;28;20269;-75
2022/10/13 04:17:22;;;;;;;19.40;11.23;;;;;11.60;101279.00;;;;10428607;28;20689;-75
2022/10/13 04:22:23;;;;;;;22.20;10.67;;;;;11.70;101276.00;;;;10429587;28;20210;-75
2022/10/13 04:27:25;;;;;;;20.43;10.77;;;;;11.70;101273.00;;;;10431076;28;20275;-75
2022/10/13 04:32:26;;;;;;;18.43;11.30;;;;;11.70;101265.00;;;;10412654;28;20206;-74
2022/10/13 04:37:28;;;;;;;26.17;10.90;;;;;11.80;101258.00;;;;10428406;28;20852;-75
2022/10/13 04:42:29;;;;;;;19.77;10.57;;;;;11.80;101248.00;;;;10426159;28;20205;-73
2022/10/13 04:47:30;;;;;;;20.70;10.50;;;;;11.80;101250.00;;;;10460106;28;20602;-74
2022/10/13 04:52:37;;;;;;;18.57;10.87;;;;;11.80;101256.00;;;;10427322;28;20198;-74
2022/10/13 04:57:38;;;;;;;20.23;10.43;;;;;11.80;101242.00;;;;10462660;28;20278;-74
2022/10/13 05:02:40;;;;;;;17.27;11.83;;;;;11.80;101244.00;;;;10443316;28;20194;-74
2022/10/13 05:07:41;;;;;;;18.60;9.83;;;;;11.70;101260.00;;;;10362204;28;20230;-74
2022/10/13 05:12:43;;;;;;;22.13;11.43;;;;;11.70;101261.00;;;;10449169;28;20756;-74
2022/10/13 05:17:44;;;;;;;16.67;9.73;;;;;11.80;101238.00;;;;10441211;28;20198;-74
2022/10/13 05:22:45;;;;;;;12.53;8.80;;;;;11.80;101240.00;;;;10459997;28;20218;-74
2022/10/13 05:27:46;;;;;;;16.10;9.27;;;;;11.80;101245.00;;;;10448309;28;20689;-74
2022/10/13 05:32:47;;;;;;;25.30;10.13;;;;;11.80;101233.00;;;;10438323;28;20195;-74
2022/10/13 05:37:55;;;;;;;17.73;9.93;;;;;11.80;101225.00;;;;10445098;28;20672;-74
2022/10/13 05:42:57;;;;;;;16.87;10.53;;;;;11.80;101231.00;;;;10442408;28;20194;-74
2022/10/13 05:47:58;;;;;;;19.40;10.30;;;;;11.80;101224.00;;;;10435168;28;20230;-74
2022/10/13 05:52:59;;;;;;;24.10;9.70;;;;;11.70;101234.00;;;;10438424;28;20198;-74
2022/10/13 05:58:00;;;;;;;21.23;9.83;;;;;11.70;101226.00;;;;10418019;28;20664;-74
2022/10/13 06:03:14;;;;;;;17.40;10.13;;;;;11.70;101230.00;;;;10424747;28;20293;-74
2022/10/13 06:08:17;;;;;;;14.43;9.77;;;;;11.70;101226.00;;;;10439799;28;20747;-74
2022/10/13 06:13:19;;;;;;;16.63;10.40;;;;;11.70;101219.00;;;;10442711;28;20313;-74
2022/10/13 06:18:20;;;;;;;22.63;9.47;;;;;11.80;101208.00;;;;10438810;28;20289;-74
2022/10/13 06:23:22;;;;;;;17.57;9.70;;;;;11.90;101220.00;;;;10438766;28;20201;-74
2022/10/13 06:28:26;;;;;;;18.33;10.33;;;;;12.00;101220.00;;;;10449463;28;20217;-74
2022/10/13 06:33:27;;;;;;;15.93;8.73;;;;;12.20;101209.00;;;;10453299;28;20297;-74
2022/10/13 06:38:28;;;;;;;15.33;9.73;;;;;12.40;101212.00;;;;10442569;28;20198;-75
2022/10/13 06:43:29;;;;;;;19.97;9.13;;;;;12.50;101214.00;;;;10447492;28;20205;-74
2022/10/13 06:48:43;;;;;;;20.07;9.30;;;;;12.50;101197.00;;;;10464832;28;20226;-74
2022/10/13 06:53:44;;;;;;;17.67;9.80;;;;;12.50;101212.00;;;;10415559;28;20726;-74
2022/10/13 06:58:45;;;;;;;18.07;10.23;;;;;12.50;101213.00;;;;10434564;28;20209;-74
2022/10/13 07:03:50;;;;;;;20.50;9.83;;;;;12.50;101208.00;;;;10408518;28;20248;-73
2022/10/13 07:08:54;;;;;;;17.80;9.40;;;;;12.50;101206.00;;;;10434453;28;20432;-74
2022/10/13 07:13:56;;;;;;;14.37;9.30;;;;;12.70;101203.00;;;;10433606;28;20717;-74
2022/10/13 07:18:57;;;;;;;18.13;9.10;;;;;12.80;101189.00;;;;10442729;28;20451;-74
2022/10/13 07:23:58;;;;;;;23.90;9.10;;;;;13.00;101202.00;;;;10456590;28;20580;-74
2022/10/13 07:29:02;;;;;;;18.57;8.60;;;;;13.20;101203.00;;;;10435712;28;20534;-74
2022/10/13 07:34:04;;;;;;;14.77;8.60;;;;;13.40;101214.00;;;;10463216;28;20277;-73
2022/10/13 07:39:06;;;;;;;13.97;8.10;;;;;13.30;101212.00;;;;10390918;28;20730;-74
2022/10/13 07:44:10;;;;;;;21.10;9.17;;;;;13.30;101199.00;;;;10459303;28;20277;-74
2022/10/13 07:49:11;;;;;;;13.67;7.63;;;;;13.20;101207.00;;;;10437742;28;20225;-74
2022/10/13 07:54:17;;;;;;;19.33;8.13;;;;;13.20;101208.00;;;;10431030;28;20186;-74
2022/10/13 07:59:19;;;;;;;12.17;8.00;;;;;13.30;101200.00;;;;10436806;28;20206;-74
2022/10/13 08:04:20;;;;;;;13.57;8.40;;;;;13.40;101197.00;;;;10422592;28;20217;-73
2022/10/13 08:09:21;;;;;;;19.50;9.10;;;;;13.60;101188.00;;;;10444746;28;20214;-74
2022/10/13 08:14:23;;;;;;;17.23;8.43;;;;;13.60;101188.00;;;;10423943;28;20198;-74
2022/10/13 08:19:25;;;;;;;18.40;9.97;;;;;13.40;101183.00;;;;10433768;28;20477;-74
2022/10/13 08:24:26;;;;;;;19.67;11.57;;;;;13.40;101188.00;;;;10431082;28;20213;-74
2022/10/13 08:29:28;;;;;;;18.27;11.33;;;;;13.50;101190.00;;;;10423826;28;20222;-73
2022/10/13 08:34:29;;;;;;;18.30;10.00;;;;;13.70;101190.00;;;;10424689;28;20784;-74
2022/10/13 08:39:31;;;;;;;15.83;9.23;;;;;13.90;101183.00;;;;10431298;28;20191;-73
2022/10/13 08:44:38;;;;;;;15.53;8.60;;;;;14.20;101176.00;;;;10448674;28;20189;-73
2022/10/13 08:50:05;;;;;;;10.93;7.87;;;;;14.60;101179.00;;;;10479160;28;20808;-74
2022/10/13 08:55:19;;;;;;;12.93;7.63;;;;;14.60;101169.00;;;;10422946;28;20200;-74
2022/10/13 09:00:20;;;;;;;13.37;7.90;;;;;14.70;101172.00;;;;10477731;28;20246;-74
2022/10/13 09:05:58;;;;;;;14.57;8.10;;;;;14.60;101164.00;;;;10488338;28;20222;-74
2022/10/13 09:10:59;;;;;;;17.30;8.07;;;;;14.40;101156.00;;;;10381733;28;20257;-74
2022/10/13 09:16:00;;;;;;;12.97;7.27;;;;;14.30;101165.00;;;;10485896;28;20228;-74
2022/10/13 09:21:20;;;;;;;13.03;7.70;;;;;14.10;101153.00;;;;10495392;28;20648;-74
2022/10/13 09:26:23;;;;;;;13.27;7.33;;;;;14.40;101153.00;;;;10449294;28;20228;-74
2022/10/13 09:31:27;;;;;;;14.57;7.67;;;;;14.60;101150.00;;;;10470226;28;20197;-73
2022/10/13 09:36:29;;;;;;;11.07;6.97;;;;;14.50;101158.00;;;;10438248;28;20202;-73
2022/10/13 09:41:32;;;;;;;17.37;7.60;;;;;14.30;101148.00;;;;10457525;28;20221;-73
2022/10/13 09:46:45;;;;;;;19.70;7.43;;;;;14.30;101155.00;;;;10429400;28;20291;-74
2022/10/13 09:51:47;;;;;;;17.97;7.80;;;;;14.50;101148.00;;;;10467468;28;20242;-74
2022/10/13 09:57:00;;;;;;;16.43;9.33;;;;;14.70;101148.00;;;;10449381;28;20593;-74
2022/10/13 10:02:27;;;;;;;14.47;7.67;;;;;14.90;101137.00;;;;10445599;28;20194;-74
2022/10/13 10:07:31;;;;;;;11.63;7.07;;;;;15.20;101136.00;;;;10470282;28;20312;-74
2022/10/13 10:12:36;;;;;;;14.90;7.53;;;;;15.60;101137.00;;;;10484793;28;20196;-74
2022/10/13 10:17:47;;;;;;;15.73;8.18;;;;;15.90;101127.00;;;;10467905;28;20194;-74
2022/10/13 10:23:11;;;;;;;15.85;8.43;;;;;16.30;101136.00;;;;10462344;28;20244;-73
2022/10/13 10:28:31;;;;;;;14.55;7.15;;;;;16.20;101138.00;;;;10461585;28;20256;-74
2022/10/13 10:33:57;;;;;;;15.82;7.55;;;;;16.10;101148.00;;;;10473531;28;20232;-73
2022/10/13 10:39:14;;;;;;;12.80;7.95;;;;;15.70;101159.00;;;;10461091;28;20228;-74
2022/10/13 10:44:38;;;;;;;16.65;7.90;;;;;15.40;101151.00;;;;10416979;28;20212;-73
2022/10/13 10:49:40;;;;;;;13.52;7.97;;;;;15.10;101159.00;;;;10482254;28;20843;-73
2022/10/13 10:54:50;;;;;;;14.53;8.23;;;;;14.90;101155.00;;;;10476282;28;20201;-73
2022/10/13 10:59:57;;;;;;;12.07;8.87;;;;;14.70;101160.00;;;;10490641;28;20206;-73
2022/10/13 11:04:59;;;;;;;16.17;10.03;;;;;14.50;101154.00;;;;10480903;28;20909;-73
2022/10/13 11:10:15;;;;;;;18.67;10.23;;;;;14.30;101150.00;;;;10452068;28;20194;-73
2022/10/13 11:15:40;;;;;;;24.40;10.70;;;;;14.50;101140.00;;;;10465609;28;20201;-73
2022/10/13 11:20:41;;;;;;;14.80;10.50;;;;;14.50;101134.00;;;;10473606;28;20209;-73
2022/10/13 11:25:47;;;;;;;15.60;9.93;;;;;14.40;101139.00;;;;10493242;28;20312;-73
2022/10/13 11:30:54;;;;;;;20.00;9.50;;;;;14.30;101136.00;;;;10496175;28;20193;-73
2022/10/13 11:35:55;;;;;;;15.83;10.03;;;;;14.30;101123.00;;;;10469322;28;20597;-73
2022/10/13 11:41:23;;;;;;;13.70;10.00;;;;;14.20;101121.00;;;;10481513;28;20246;-73
2022/10/13 11:46:36;;;;;;;15.07;9.23;;;;;14.30;101123.00;;;;10484673;28;20218;-73
2022/10/13 11:51:58;;;;;;;16.33;10.37;;;;;14.90;101110.00;;;;10497092;28;20198;-73
2022/10/13 11:57:00;;;;;;;12.60;9.80;;;;;15.70;101111.00;;;;10495332;28;20201;-73
2022/10/13 12:02:12;;;;;;;14.90;9.50;;;;;15.90;101104.00;;;;10482378;28;20220;-73
2022/10/13 12:07:16;;;;;;;18.70;11.17;;;;;15.80;101101.00;;;;10453388;28;20217;-73
2022/10/13 12:12:22;;;;;;;16.33;11.80;;;;;15.60;101099.00;;;;10488662;28;20197;-73
2022/10/13 12:17:34;;;;;;;16.10;9.88;;;;;15.40;101095.00;;;;10479671;28;20197;-73
2022/10/13 12:22:35;;;;;;;15.73;10.70;;;;;15.30;101100.00;;;;10474871;28;20216;-73
2022/10/13 12:27:53;;;;;;;17.13;11.23;;;;;14.90;101107.00;;;;10462224;28;20258;-73
2022/10/13 12:32:57;;;;;;;20.47;11.60;;;;;14.50;101108.00;;;;10474426;28;20280;-73
2022/10/13 12:38:16;;;;;;;21.90;13.37;;;;;14.30;101103.00;;;;10468479;28;20196;-73
2022/10/13 12:43:24;;;;;;;18.30;11.83;;;;;14.30;101091.00;;;;10486963;28;20200;-73
2022/10/13 12:48:47;;;;;;;17.13;11.90;;;;;14.30;101090.00;;;;10491864;28;20278;-73
2022/10/13 12:53:48;;;;;;;22.67;12.70;;;;;14.60;101083.00;;;;10447138;28;20201;-73
2022/10/13 12:58:49;;;;;;;21.67;12.97;;;;;14.50;101078.00;;;;10481999;28;20202;-73
2022/10/13 13:04:16;;;;;;;22.27;13.23;;;;;14.60;101088.00;;;;10429294;28;20221;-73
2022/10/13 13:09:21;;;;;;;24.70;15.02;;;;;14.60;101089.00;;;;10458496;28;20778;-73
2022/10/13 13:14:42;;;;;;;19.13;14.00;;;;;14.60;101077.00;;;;10468016;28;20202;-73
2022/10/13 13:19:47;;;;;;;21.60;14.43;;;;;14.60;101081.00;;;;10470871;28;20201;-73
2022/10/13 13:24:50;;;;;;;19.93;13.57;;;;;14.50;101091.00;;;;10462718;28;20212;-73
2022/10/13 13:29:53;;;;;;;19.30;13.13;;;;;14.50;101086.00;;;;10467399;28;20343;-73
2022/10/13 13:34:55;;;;;;;23.95;13.65;;;;;14.70;101084.00;;;;10460193;28;20196;-74
2022/10/13 13:39:57;;;;;;;18.67;12.20;;;;;15.10;101079.00;;;;10469299;28;20274;-74
2022/10/13 13:44:58;;;;;;;15.67;12.50;;;;;15.30;101078.00;;;;10478635;28;20194;-73
2022/10/13 13:49:59;;;;;;;15.15;12.10;;;;;15.10;101081.00;;;;10446971;28;20223;-73
2022/10/13 13:55:00;;;;;;;19.10;12.55;;;;;15.00;101079.00;;;;10492105;28;21927;-73
2022/10/13 14:00:03;;;;;;;17.15;12.77;;;;;14.90;101077.00;;;;10467386;28;20254;-73
2022/10/13 14:05:12;;;;;;;22.83;14.23;;;;;15.00;101063.00;;;;10467045;28;20252;-73
2022/10/13 14:10:13;;;;;;;19.48;14.52;;;;;15.20;101058.00;;;;10457629;28;20203;-74
2022/10/13 14:15:15;;;;;;;23.30;14.30;;;;;15.30;101058.00;;;;10486930;28;20193;-73
2022/10/13 14:20:16;;;;;;;22.67;15.38;;;;;15.20;101065.00;;;;10437336;28;20292;-73
2022/10/13 14:25:18;;;;;;;21.88;15.35;;;;;15.20;101058.00;;;;10456625;28;20200;-73
2022/10/13 14:30:19;;;;;;;20.77;14.43;;;;;15.20;101052.00;;;;10463324;28;20205;-73
2022/10/13 14:35:20;;;;;;;19.70;13.85;;;;;15.10;101053.00;;;;10443400;28;20208;-73
2022/10/13 14:40:21;;;;;;;18.85;13.05;;;;;14.90;101055.00;;;;10480656;28;20200;-73
2022/10/13 14:45:23;;;;;;;16.50;12.55;;;;;14.80;101053.00;;;;10475722;28;20913;-73
2022/10/13 14:50:24;;;;;;;19.60;12.93;;;;;14.80;101054.00;;;;10448281;28;20251;-73
2022/10/13 14:55:30;;;;;;;23.02;12.18;;;;;14.70;101049.00;;;;10480251;28;20201;-73
2022/10/13 15:00:32;;;;;;;20.33;13.43;;;;;14.60;101043.00;;;;10471418;28;20334;-73
2022/10/13 15:05:35;;;;;;;17.13;11.13;;;;;14.40;101053.00;;;;10451823;28;20709;-74
2022/10/13 15:10:37;;;;;;;16.33;11.07;;;;;14.30;101063.00;;;;10483556;28;20292;-73
2022/10/13 15:15:45;;;;;;;14.57;11.23;;;;;14.20;101051.00;;;;10468469;28;20240;-73
2022/10/13 15:20:47;;;;;;;18.93;11.47;;;;;14.10;101049.00;;;;10464099;28;20213;-73
2022/10/13 15:25:55;;;;;;;18.00;12.10;;;;;14.00;101042.00;;;;10488461;28;20295;-73
2022/10/13 15:30:56;;;;;;;12.83;9.03;;;;;13.90;101046.00;;;;10456757;28;20250;-73
2022/10/13 15:35:59;;;;;;;15.23;8.63;;;;;13.90;101034.00;;;;10445706;28;20205;-73
2022/10/13 15:41:02;;;;;;;15.47;8.40;;;;;13.80;101032.00;;;;10465863;28;20201;-73
2022/10/13 15:46:06;;;;;;;10.90;7.93;;;;;13.80;101045.00;;;;10478673;28;20584;-73
2022/10/13 15:51:15;;;;;;;14.53;8.10;;;;;13.70;101044.00;;;;10467921;28;20296;-73
2022/10/13 15:56:17;;;;;;;11.33;7.10;;;;;13.70;101046.00;;;;10464207;28;20198;-73
2022/10/13 16:01:18;;;;;;;9.63;6.83;;;;;13.60;101046.00;;;;10449797;28;21610;-73
2022/10/13 16:06:20;;;;;;;11.27;6.80;;;;;13.60;101040.00;;;;10457141;28;20236;-74
2022/10/13 16:11:22;;;;;;;11.87;6.90;;;;;13.60;101033.00;;;;10463006;28;20218;-74
2022/10/13 16:16:23;;;;;;;13.47;7.43;;;;;13.60;101034.00;;;;10486125;28;20254;-73
2022/10/13 16:21:25;;;;;;;11.23;7.03;;;;;13.50;101036.00;;;;10443975;28;20202;-73
2022/10/13 16:26:26;;;;;;;10.20;6.87;;;;;13.50;101037.00;;;;10482884;28;20220;-74
2022/10/13 16:31:28;;;;;;;12.17;7.90;;;;;13.50;101028.00;;;;10488647;28;20204;-73
2022/10/13 16:36:29;;;;;;;11.30;7.13;;;;;13.40;101029.00;;;;10479999;28;20336;-74
2022/10/13 16:41:31;;;;;;;14.03;8.50;;;;;13.40;101033.00;;;;10459171;28;20190;-73
2022/10/13 16:46:33;;;;;;;12.27;7.43;;;;;13.40;101039.00;;;;10482525;28;20232;-73
2022/10/13 16:51:34;;;;;;;10.43;8.13;;;;;13.40;101036.00;;;;10481105;28;20603;-74
2022/10/13 16:56:35;;;;;;;12.00;7.10;;;;;13.30;101043.00;;;;10444831;28;20741;-73
2022/10/13 17:01:39;;;;;;;11.03;7.80;;;;;13.30;101039.00;;;;10470741;28;20339;-74
2022/10/13 17:06:40;;;;;;;12.80;8.20;;;;;13.30;101048.00;;;;10454998;28;20236;-74
2022/10/13 17:11:42;;;;;;;11.23;8.40;;;;;13.30;101045.00;;;;10479544;28;20211;-74
2022/10/13 17:16:44;;;;;;;15.53;9.67;;;;;13.30;101047.00;;;;10447026;28;20228;-74
2022/10/13 17:21:46;;;;;;;10.83;8.47;;;;;13.30;101047.00;;;;10475095;28;20267;-74
2022/10/13 17:26:48;;;;;;;14.00;9.30;;;;;13.30;101062.00;;;;10485192;28;20245;-74
2022/10/13 17:31:49;;;;;;;10.57;8.70;;;;;13.30;101064.00;;;;10479481;28;20571;-74
2022/10/13 17:36:57;;;;;;;12.00;8.63;;;;;13.30;101059.00;;;;10474544;28;20206;-74
2022/10/13 17:41:58;;;;;;;12.80;9.23;;;;;13.30;101051.00;;;;10459623;28;20414;-74
2022/10/13 17:46:59;;;;;;;13.10;9.40;;;;;13.20;101056.00;;;;10452438;28;20312;-74
2022/10/13 17:52:01;;;;;;;12.87;9.53;;;;;13.10;101064.00;;;;10481621;28;20231;-73
2022/10/13 17:57:02;;;;;;;17.60;11.60;;;;;13.00;101068.00;;;;10455234;28;20235;-74
2022/10/13 18:02:03;;;;;;;14.57;11.33;;;;;13.00;101071.00;;;;10474284;28;20703;-74
2022/10/13 18:07:05;;;;;;;15.27;11.87;;;;;13.00;101075.00;;;;10481455;28;20634;-74
2022/10/13 18:12:06;;;;;;;16.10;13.47;;;;;13.10;101078.00;;;;10477777;28;20206;-74
2022/10/13 18:17:07;;;;;;;16.27;11.77;;;;;13.10;101076.00;;;;10485403;28;20276;-74
2022/10/13 18:22:08;;;;;;;15.20;12.17;;;;;13.20;101080.00;;;;10485360;28;20210;-74
2022/10/13 18:27:09;;;;;;;15.03;11.83;;;;;13.20;101075.00;;;;10485623;28;20217;-74
2022/10/13 18:32:11;;;;;;;19.50;12.53;;;;;13.30;101064.00;;;;10473566;28;20236;-74
2022/10/13 18:37:12;;;;;;;18.00;12.27;;;;;13.30;101065.00;;;;10457930;28;20197;-74
2022/10/13 18:42:13;;;;;;;16.43;11.87;;;;;13.30;101064.00;;;;10452957;28;20224;-74
2022/10/13 18:47:14;;;;;;;17.60;13.30;;;;;13.30;101058.00;;;;10454853;28;20213;-74
2022/10/13 18:52:16;;;;;;;18.53;14.30;;;;;13.30;101060.00;;;;10464708;28;20193;-74
2022/10/13 18:57:17;;;;;;;17.37;14.07;;;;;13.30;101056.00;;;;10454728;28;20296;-74
2022/10/13 19:02:21;;;;;;;17.73;13.50;;;;;13.30;101057.00;;;;10461909;28;20246;-74
2022/10/13 19:07:22;;;;;;;19.03;14.20;;;;;13.30;101067.00;;;;10426458;28;20586;-74
2022/10/13 19:12:25;;;;;;;22.40;14.60;;;;;13.30;101068.00;;;;10461299;28;20733;-74
2022/10/13 19:17:27;;;;;;;20.67;14.30;;;;;13.30;101059.00;;;;10444617;28;20193;-74
2022/10/13 19:22:28;;;;;;;23.07;13.50;;;;;13.30;101054.00;;;;10431036;28;20336;-74
2022/10/13 19:27:29;;;;;;;20.73;13.13;;;;;13.40;101044.00;;;;10456483;28;20313;-74
2022/10/13 19:32:30;;;;;;;21.53;13.77;;;;;13.40;101054.00;;;;10451691;28;20193;-74
2022/10/13 19:37:31;;;;;;;17.77;14.47;;;;;13.40;101062.00;;;;10495143;28;20194;-74
2022/10/13 19:42:33;;;;;;;17.97;12.83;;;;;13.30;101065.00;;;;10488441;28;20182;-74
2022/10/13 19:47:34;;;;;;;21.37;13.80;;;;;13.30;101074.00;;;;10479894;28;20292;-74
2022/10/13 19:52:36;;;;;;;16.53;13.40;;;;;13.40;101078.00;;;;10506812;28;20197;-74
2022/10/13 19:57:37;;;;;;;17.87;14.13;;;;;13.40;101077.00;;;;10472546;28;20233;-74
2022/10/13 20:02:38;;;;;;;16.80;12.53;;;;;13.40;101071.00;;;;10492110;28;20246;-74
2022/10/13 20:07:39;;;;;;;17.77;13.77;;;;;13.40;101076.00;;;;10496237;28;20228;-74
2022/10/13 20:12:40;;;;;;;18.80;13.10;;;;;13.40;101081.00;;;;10488715;28;20197;-74
2022/10/13 20:17:42;;;;;;;17.37;13.43;;;;;13.40;101082.00;;;;10467912;28;20213;-74
2022/10/13 20:22:43;;;;;;;18.57;13.40;;;;;13.50;101080.00;;;;10471947;28;20276;-74
2022/10/13 20:27:45;;;;;;;16.80;14.57;;;;;13.50;101082.00;;;;10448932;28;20213;-74
2022/10/13 20:32:47;;;;;;;18.50;14.17;;;;;13.50;101082.00;;;;10476409;28;20213;-74
2022/10/13 20:37:48;;;;;;;16.57;12.77;;;;;13.50;101071.00;;;;10483091;28;20252;-74
2022/10/13 20:42:51;;;;;;;19.97;14.13;;;;;13.50;101070.00;;;;10447315;28;20204;-74
2022/10/13 20:47:54;;;;;;;16.73;12.80;;;;;13.50;101069.00;;;;10495537;28;20788;-74
2022/10/13 20:52:55;;;;;;;18.80;13.77;;;;;13.50;101054.00;;;;10490393;28;20200;-74
2022/10/13 20:57:56;;;;;;;14.80;12.40;;;;;13.50;101042.00;;;;10486962;28;20194;-74
2022/10/13 21:02:57;;;;;;;15.47;12.53;;;;;13.50;101059.00;;;;10446582;28;20382;-74
2022/10/13 21:08:02;;;;;;;17.67;13.80;;;;;13.50;101058.00;;;;10479402;28;20250;-74
2022/10/13 21:13:04;;;;;;;18.60;12.57;;;;;13.50;101059.00;;;;10461052;28;20201;-74
2022/10/13 21:18:08;;;;;;;15.57;11.80;;;;;13.50;101046.00;;;;10477050;28;20265;-74
2022/10/13 21:23:11;;;;;;;14.77;12.57;;;;;13.50;101043.00;;;;10444446;28;20193;-74
2022/10/13 21:28:12;;;;;;;16.77;11.97;;;;;13.60;101035.00;;;;10485205;28;20286;-74
2022/10/13 21:33:14;;;;;;;14.97;11.60;;;;;13.60;101047.00;;;;10449389;28;20197;-75
2022/10/13 21:38:15;;;;;;;15.07;11.73;;;;;13.60;101048.00;;;;10445474;28;20201;-74
2022/10/13 21:43:20;;;;;;;12.87;11.07;;;;;13.60;101050.00;;;;10487008;28;20223;-74
2022/10/13 21:48:21;;;;;;;15.27;12.03;;;;;13.60;101044.00;;;;10470066;28;20351;-74
2022/10/13 21:53:22;;;;;;;15.73;12.47;;;;;13.70;101041.00;;;;10457940;28;20196;-74
2022/10/13 21:58:24;;;;;;;16.40;12.87;;;;;13.70;101036.00;;;;10444859;28;20204;-74
2022/10/13 22:03:25;;;;;;;17.07;12.77;;;;;13.70;101040.00;;;;10458558;28;20205;-75
2022/10/13 22:08:26;;;;;;;14.60;11.80;;;;;13.70;101043.00;;;;10484062;28;20225;-75
2022/10/13 22:13:46;;;;;;;18.80;13.20;;;;;13.70;101042.00;;;;10482373;28;20283;-75
2022/10/13 22:18:50;;;;;;;18.43;13.03;;;;;13.70;101042.00;;;;10462821;28;20824;-75
2022/10/13 22:24:04;;;;;;;17.93;13.77;;;;;13.70;101029.00;;;;10460397;28;20200;-75
2022/10/13 22:29:07;;;;;;;18.07;13.07;;;;;13.70;101026.00;;;;10480622;28;20209;-75
2022/10/13 22:34:11;;;;;;;22.10;14.40;;;;;13.80;101026.00;;;;10447325;28;20202;-75
2022/10/13 22:39:13;;;;;;;20.30;14.20;;;;;13.80;101029.00;;;;10469518;28;20198;-75
2022/10/13 22:44:14;;;;;;;19.30;14.03;;;;;13.80;101013.00;;;;10450623;28;20193;-75
2022/10/13 22:49:15;;;;;;;20.27;13.70;;;;;13.80;101018.00;;;;10429785;28;20287;-75
2022/10/13 22:54:17;;;;;;;19.10;13.07;;;;;13.80;101027.00;;;;10432492;28;20482;-75
2022/10/13 22:59:18;;;;;;;19.83;14.33;;;;;13.80;101018.00;;;;10453052;28;20194;-75
2022/10/13 23:04:19;;;;;;;19.20;13.73;;;;;13.80;101012.00;;;;10459022;28;20584;-75
2022/10/13 23:09:20;;;;;;;18.07;12.93;;;;;13.80;101004.00;;;;10469425;28;20221;-75
2022/10/13 23:14:21;;;;;;;20.10;14.53;;;;;13.80;101005.00;;;;10484597;28;20194;-75
2022/10/13 23:19:22;;;;;;;19.37;12.80;;;;;13.90;101002.00;;;;10478369;28;20211;-75
2022/10/13 23:24:23;;;;;;;21.07;13.97;;;;;13.90;100999.00;;;;10455650;28;20194;-75
2022/10/13 23:29:26;;;;;;;19.00;13.07;;;;;13.90;100990.00;;;;10426166;28;20248;-75
2022/10/13 23:34:28;;;;;;;18.30;12.00;;;;;13.90;100984.00;;;;10467993;28;20396;-75
2022/10/13 23:39:29;;;;;;;19.50;13.57;;;;;13.90;100974.00;;;;10475962;28;20583;-75
2022/10/13 23:44:30;;;;;;;19.83;13.03;;;;;13.90;100976.00;;;;10482890;28;20204;-75
2022/10/13 23:49:31;;;;;;;22.13;13.80;;;;;13.90;100975.00;;;;10456858;28;20358;-75
2022/10/13 23:54:32;;;;;;;18.77;12.17;;;;;13.90;100965.00;;;;10467426;28;20212;-75
2022/10/13 23:59:34;;;;;;;21.23;12.67;;;;;13.90;100962.00;;;;10467783;28;20190;-75
